Time;durP1;ratioP1;P1;durP2;ratioP2;P2;SDS_P1;SDS_P2;PMS_P1;PMS_P2;Temp;Humidity;BMP_temperature;BMP_pressure;BME280_temperature;BME280_humidity;BME280_pressure;Samples;Min_cycle;Max_cycle;Signal;HPM_P1;HPM_P2
2024/04/09 00:00:20;;;;;;;8.13;3.58;;;18.20;99.90;;;;;;4448780;26;20044;-66
2024/04/09 00:02:21;;;;;;;6.30;2.88;;;18.20;99.90;;;;;;4466210;26;20032;-66
2024/04/09 00:04:21;;;;;;;7.22;3.35;;;18.20;99.90;;;;;;4462544;26;20501;-66
2024/04/09 00:06:22;;;;;;;8.93;3.22;;;18.20;99.90;;;;;;4460835;26;20086;-68
2024/04/09 00:08:23;;;;;;;11.57;3.00;;;18.10;99.90;;;;;;4463835;26;20003;-67
2024/04/09 00:10:23;;;;;;;10.70;3.53;;;18.10;99.90;;;;;;4456818;26;20012;-67
2024/04/09 00:12:25;;;;;;;6.20;2.88;;;18.10;99.90;;;;;;4452125;26;20084;-66
2024/04/09 00:14:25;;;;;;;14.10;3.65;;;18.10;99.90;;;;;;4452569;26;20022;-66
2024/04/09 00:16:26;;;;;;;11.10;3.05;;;18.10;99.90;;;;;;4455588;26;20000;-66
2024/04/09 00:18:27;;;;;;;13.13;3.35;;;18.00;99.90;;;;;;4477660;26;20389;-67
2024/04/09 00:20:29;;;;;;;13.65;3.40;;;18.00;99.90;;;;;;4472945;26;20353;-68
2024/04/09 00:22:30;;;;;;;16.65;3.45;;;18.00;99.90;;;;;;4464543;26;20463;-67
2024/04/09 00:24:32;;;;;;;13.38;3.13;;;18.00;99.90;;;;;;4463959;26;20012;-67
2024/04/09 00:26:32;;;;;;;11.63;3.38;;;17.90;99.90;;;;;;4456155;26;20128;-67
2024/04/09 00:28:33;;;;;;;15.63;3.58;;;18.00;99.90;;;;;;4470100;26;20344;-67
2024/04/09 00:30:34;;;;;;;17.38;3.55;;;18.00;99.90;;;;;;4457802;26;20003;-67
2024/04/09 00:32:36;;;;;;;24.48;4.47;;;18.00;99.90;;;;;;4464280;26;20353;-67
2024/04/09 00:34:36;;;;;;;9.77;3.00;;;18.00;99.90;;;;;;4470132;26;20355;-67
2024/04/09 00:36:37;;;;;;;23.58;4.03;;;17.90;99.90;;;;;;4469425;26;20003;-67
2024/04/09 00:38:40;;;;;;;13.05;3.38;;;18.00;99.90;;;;;;4490048;26;19999;-68
2024/04/09 00:40:42;;;;;;;9.40;2.67;;;18.00;99.90;;;;;;4533746;26;20050;-67
2024/04/09 00:42:42;;;;;;;15.03;3.33;;;18.00;99.90;;;;;;4483934;26;20011;-68
2024/04/09 00:44:43;;;;;;;10.95;2.95;;;18.00;99.90;;;;;;4479586;26;20015;-67
2024/04/09 00:46:46;;;;;;;13.93;2.97;;;18.00;99.90;;;;;;4486761;26;19999;-67
2024/04/09 00:48:49;;;;;;;9.82;2.83;;;18.00;99.90;;;;;;4477033;26;20015;-67
2024/04/09 00:50:50;;;;;;;9.57;2.72;;;18.10;99.90;;;;;;4478539;26;20118;-67
2024/04/09 00:52:55;;;;;;;12.80;3.38;;;18.00;99.90;;;;;;4478507;26;20420;-67
2024/04/09 00:54:57;;;;;;;13.63;3.70;;;18.00;99.90;;;;;;4470384;26;20344;-67
2024/04/09 00:56:58;;;;;;;14.82;2.65;;;18.00;99.90;;;;;;4458637;26;20016;-67
2024/04/09 00:58:59;;;;;;;8.90;3.38;;;18.00;99.90;;;;;;4458441;26;20477;-67
2024/04/09 01:01:00;;;;;;;10.55;2.85;;;18.10;99.90;;;;;;4470149;26;20012;-67
2024/04/09 01:03:01;;;;;;;14.90;3.53;;;18.10;99.90;;;;;;4464840;26;20007;-67
2024/04/09 01:05:02;;;;;;;11.45;3.25;;;18.10;99.90;;;;;;4463937;26;20000;-67
2024/04/09 01:07:02;;;;;;;13.30;3.42;;;18.00;99.90;;;;;;4465819;26;20014;-67
2024/04/09 01:09:03;;;;;;;7.50;2.42;;;18.00;99.90;;;;;;4474720;26;20011;-67
2024/04/09 01:11:04;;;;;;;16.00;3.35;;;18.00;99.90;;;;;;4474960;26;20008;-67
2024/04/09 01:13:04;;;;;;;9.82;2.97;;;18.00;99.90;;;;;;4475947;26;20387;-67
2024/04/09 01:15:06;;;;;;;13.35;2.92;;;18.00;99.90;;;;;;4475520;26;20026;-70
2024/04/09 01:17:07;;;;;;;12.70;2.90;;;18.00;99.90;;;;;;4474897;26;20004;-67
2024/04/09 01:19:08;;;;;;;14.80;3.25;;;17.90;99.90;;;;;;4476212;26;20073;-67
2024/04/09 01:21:10;;;;;;;7.65;2.90;;;17.90;99.90;;;;;;4474423;26;20395;-67
2024/04/09 01:23:11;;;;;;;15.40;3.40;;;17.90;99.90;;;;;;4474888;26;20464;-66
2024/04/09 01:25:12;;;;;;;10.20;3.17;;;17.90;99.90;;;;;;4474396;26;20028;-67
2024/04/09 01:27:14;;;;;;;15.10;3.38;;;17.80;99.90;;;;;;4473777;26;20407;-70
2024/04/09 01:29:16;;;;;;;16.38;3.60;;;17.80;99.90;;;;;;4468489;26;20008;-70
2024/04/09 01:31:16;;;;;;;13.95;3.83;;;17.80;99.90;;;;;;4475300;26;20007;-71
2024/04/09 01:33:17;;;;;;;12.05;3.10;;;17.80;99.90;;;;;;4476849;26;20011;-70
2024/04/09 01:35:18;;;;;;;14.32;3.50;;;17.70;99.90;;;;;;4473451;26;20041;-71
2024/04/09 01:37:19;;;;;;;10.00;3.30;;;17.70;99.90;;;;;;4470872;26;20019;-70
2024/04/09 01:39:20;;;;;;;21.50;4.25;;;17.70;99.90;;;;;;4473985;26;20015;-70
2024/04/09 01:41:20;;;;;;;11.65;3.35;;;17.70;99.90;;;;;;4473909;26;20018;-70
2024/04/09 01:43:21;;;;;;;13.30;3.28;;;17.70;99.90;;;;;;4501941;26;20014;-71
2024/04/09 01:45:22;;;;;;;14.32;3.63;;;17.60;99.90;;;;;;4473571;26;20007;-70
2024/04/09 01:47:22;;;;;;;14.07;3.20;;;17.60;99.90;;;;;;4475886;26;20472;-71
2024/04/09 01:49:25;;;;;;;10.82;3.17;;;17.60;99.90;;;;;;4473897;26;20066;-70
2024/04/09 01:51:26;;;;;;;12.40;2.60;;;17.60;99.90;;;;;;4474648;26;20011;-70
2024/04/09 01:53:27;;;;;;;9.63;2.42;;;17.60;99.90;;;;;;4474211;26;20029;-70
2024/04/09 01:55:28;;;;;;;6.13;1.92;;;17.60;99.90;;;;;;4473817;26;20045;-70
2024/04/09 01:57:31;;;;;;;8.48;1.92;;;17.60;99.90;;;;;;4475271;26;20364;-71
2024/04/09 01:59:32;;;;;;;7.60;2.30;;;17.60;99.90;;;;;;4475543;26;20018;-71
2024/04/09 02:01:33;;;;;;;5.40;2.20;;;17.60;99.90;;;;;;4472601;26;20378;-70
2024/04/09 02:03:34;;;;;;;14.77;3.08;;;17.60;99.90;;;;;;4474241;26;20019;-70
2024/04/09 02:05:36;;;;;;;9.55;2.70;;;17.60;99.90;;;;;;4473399;26;20022;-70
2024/04/09 02:07:37;;;;;;;6.97;2.45;;;17.60;99.90;;;;;;4474685;26;20325;-70
2024/04/09 02:09:37;;;;;;;4.82;2.00;;;17.60;99.90;;;;;;4476108;26;20022;-70
2024/04/09 02:11:38;;;;;;;11.02;2.40;;;17.60;99.90;;;;;;4473423;26;20400;-70
2024/04/09 02:13:40;;;;;;;6.20;1.73;;;17.60;99.90;;;;;;4474470;26;20007;-71
2024/04/09 02:15:41;;;;;;;5.53;1.95;;;17.60;99.90;;;;;;4471138;26;20547;-69
2024/04/09 02:17:41;;;;;;;5.78;2.08;;;17.60;99.90;;;;;;4474459;26;20041;-70
2024/04/09 02:19:42;;;;;;;5.82;2.13;;;17.60;99.90;;;;;;4474229;26;20059;-70
2024/04/09 02:21:42;;;;;;;7.40;2.28;;;17.50;99.90;;;;;;4472182;26;20023;-70
2024/04/09 02:23:43;;;;;;;8.43;2.00;;;17.50;99.90;;;;;;4472441;26;20003;-70
2024/04/09 02:25:44;;;;;;;5.53;1.85;;;17.50;99.90;;;;;;4472871;26;20019;-70
2024/04/09 02:27:44;;;;;;;5.18;1.88;;;17.50;99.90;;;;;;4473428;26;20351;-71
2024/04/09 02:29:45;;;;;;;5.85;1.95;;;17.50;99.90;;;;;;4532873;26;20429;-71
2024/04/09 02:31:45;;;;;;;8.77;1.95;;;17.50;99.90;;;;;;4474967;26;20662;-71
2024/04/09 02:33:46;;;;;;;10.23;2.58;;;17.50;99.90;;;;;;4476212;26;20348;-71
2024/04/09 02:35:58;;;;;;;7.57;2.33;;;17.40;99.90;;;;;;4471393;26;20007;-69
2024/04/09 02:37:59;;;;;;;8.00;2.35;;;17.50;99.90;;;;;;4472513;26;20288;-66
2024/04/09 02:39:59;;;;;;;9.57;2.22;;;17.50;99.90;;;;;;4473002;26;20426;-66
2024/04/09 02:42:03;;;;;;;6.40;1.90;;;17.40;99.90;;;;;;4469922;26;20027;-66
2024/04/09 02:44:04;;;;;;;5.47;2.00;;;17.40;99.90;;;;;;4467796;26;20004;-66
2024/04/09 02:46:04;;;;;;;7.80;2.28;;;17.40;99.90;;;;;;4472741;26;20081;-66
2024/04/09 02:48:06;;;;;;;7.97;2.22;;;17.40;99.90;;;;;;4471877;26;20012;-66
2024/04/09 02:50:07;;;;;;;8.35;2.47;;;17.50;99.90;;;;;;4473100;26;20492;-69
2024/04/09 02:52:08;;;;;;;7.18;2.60;;;17.40;99.90;;;;;;4477983;26;20008;-66
2024/04/09 02:54:11;;;;;;;8.23;2.70;;;17.40;99.90;;;;;;4478526;26;19995;-67
2024/04/09 02:56:13;;;;;;;5.40;2.13;;;17.40;99.90;;;;;;4471243;26;20000;-66
2024/04/09 02:58:14;;;;;;;4.57;2.10;;;17.50;99.90;;;;;;4477134;26;20019;-66
2024/04/09 03:00:19;;;;;;;8.63;2.47;;;17.40;99.90;;;;;;4476799;26;20018;-67
2024/04/09 03:02:20;;;;;;;8.70;2.50;;;17.40;99.90;;;;;;4476831;26;20336;-66
2024/04/09 03:04:20;;;;;;;10.48;2.70;;;17.40;99.90;;;;;;4478107;26;20039;-66
2024/04/09 03:06:21;;;;;;;8.10;2.75;;;17.40;99.90;;;;;;4471360;26;20048;-66
2024/04/09 03:08:22;;;;;;;8.57;2.10;;;17.40;99.90;;;;;;4476205;26;20501;-67
2024/04/09 03:10:23;;;;;;;12.43;2.65;;;17.30;99.90;;;;;;4470895;26;20007;-66
2024/04/09 03:12:24;;;;;;;8.88;2.78;;;17.30;99.90;;;;;;4477665;26;20000;-66
2024/04/09 03:14:24;;;;;;;6.97;2.22;;;17.20;99.90;;;;;;4474711;26;20480;-67
2024/04/09 03:16:25;;;;;;;6.88;2.50;;;17.20;99.90;;;;;;4471924;26;20079;-68
2024/04/09 03:18:25;;;;;;;9.15;2.50;;;17.20;99.90;;;;;;4477849;26;20047;-67
2024/04/09 03:20:26;;;;;;;10.75;2.90;;;17.20;99.90;;;;;;4506607;26;20893;-66
2024/04/09 03:22:26;;;;;;;12.07;3.08;;;17.20;99.90;;;;;;4479743;26;20008;-67
2024/04/09 03:24:27;;;;;;;11.07;2.83;;;17.10;99.90;;;;;;4506390;26;20007;-67
2024/04/09 03:26:28;;;;;;;12.93;2.75;;;17.10;99.90;;;;;;4477597;26;20301;-67
2024/04/09 03:28:28;;;;;;;10.57;2.88;;;17.10;99.90;;;;;;4479728;26;20007;-66
2024/04/09 03:30:29;;;;;;;8.25;2.42;;;17.00;99.90;;;;;;4479101;26;20067;-66
2024/04/09 03:32:29;;;;;;;5.85;2.25;;;17.00;99.90;;;;;;4479536;26;20488;-66
2024/04/09 03:34:30;;;;;;;14.80;2.60;;;17.00;99.90;;;;;;4477647;26;20008;-66
2024/04/09 03:36:31;;;;;;;7.05;2.28;;;17.00;99.90;;;;;;4473579;26;20030;-66
2024/04/09 03:38:32;;;;;;;9.55;2.55;;;16.90;99.90;;;;;;4478909;26;20092;-66
2024/04/09 03:40:32;;;;;;;6.97;3.10;;;16.90;99.90;;;;;;4470422;26;20023;-67
2024/04/09 03:42:33;;;;;;;11.50;2.97;;;16.90;99.90;;;;;;4499418;26;20472;-66
2024/04/09 03:44:33;;;;;;;10.95;2.72;;;16.90;99.90;;;;;;4475365;26;20017;-66
2024/04/09 03:46:34;;;;;;;12.25;3.03;;;16.90;99.90;;;;;;4476591;26;20316;-66
2024/04/09 03:48:36;;;;;;;11.98;2.85;;;16.80;99.90;;;;;;4479860;26;20012;-66
2024/04/09 03:50:36;;;;;;;9.77;2.83;;;16.80;99.90;;;;;;4478176;26;20007;-66
2024/04/09 03:52:37;;;;;;;6.63;2.42;;;16.70;99.90;;;;;;4478401;26;20034;-66
2024/04/09 03:54:38;;;;;;;10.55;2.53;;;16.70;99.90;;;;;;4479683;26;20015;-67
2024/04/09 03:56:38;;;;;;;9.85;2.80;;;16.60;99.90;;;;;;4478411;26;20444;-67
2024/04/09 03:58:44;;;;;;;10.38;2.80;;;16.60;99.90;;;;;;4477279;26;20018;-67
2024/04/09 04:00:57;;;;;;;6.13;2.15;;;16.60;99.90;;;;;;4477110;26;20018;-67
2024/04/09 04:02:58;;;;;;;6.57;1.90;;;16.50;99.90;;;;;;4476159;26;20502;-67
2024/04/09 04:04:58;;;;;;;13.77;3.25;;;16.50;99.90;;;;;;4476909;26;20007;-66
2024/04/09 04:06:59;;;;;;;11.68;3.10;;;16.40;99.90;;;;;;4461167;26;20008;-66
2024/04/09 04:09:00;;;;;;;7.75;2.88;;;16.40;99.90;;;;;;4467587;26;20076;-67
2024/04/09 04:11:02;;;;;;;5.68;2.10;;;16.40;99.90;;;;;;4484201;26;20007;-66
2024/04/09 04:13:02;;;;;;;7.95;2.30;;;16.30;99.90;;;;;;4547367;25;20021;-66
2024/04/09 04:15:03;;;;;;;8.07;2.25;;;16.20;99.90;;;;;;4476510;26;20023;-67
2024/04/09 04:17:05;;;;;;;10.93;2.42;;;16.20;99.90;;;;;;4465773;26;20027;-67
2024/04/09 04:19:06;;;;;;;6.10;1.77;;;16.20;99.90;;;;;;4480805;26;20013;-67
2024/04/09 04:21:09;;;;;;;7.90;2.40;;;16.30;99.90;;;;;;4459872;26;20633;-67
2024/04/09 04:23:09;;;;;;;6.47;1.80;;;16.20;99.90;;;;;;4471264;26;20419;-67
2024/04/09 04:25:11;;;;;;;8.80;1.65;;;16.30;99.90;;;;;;4474693;26;20007;-68
2024/04/09 04:27:12;;;;;;;7.10;2.08;;;16.20;99.90;;;;;;4465259;26;20449;-67
2024/04/09 04:29:12;;;;;;;6.40;2.28;;;16.30;99.90;;;;;;4480059;26;20087;-67
2024/04/09 04:31:15;;;;;;;6.55;2.08;;;16.20;99.90;;;;;;4483348;26;20007;-67
2024/04/09 04:33:15;;;;;;;;;;;16.20;99.90;;;;;;4471077;26;20036;-67
2024/04/09 04:35:16;;;;;;;7.95;2.30;;;16.20;99.90;;;;;;4471215;26;20319;-67
2024/04/09 04:37:17;;;;;;;7.65;1.88;;;16.20;99.90;;;;;;4452799;26;20008;-68
2024/04/09 04:39:17;;;;;;;8.38;2.45;;;16.20;99.90;;;;;;4474666;26;20018;-67
2024/04/09 04:41:18;;;;;;;5.50;1.83;;;16.20;99.90;;;;;;4485604;26;20019;-67
2024/04/09 04:43:19;;;;;;;7.57;2.20;;;16.20;99.90;;;;;;4473607;26;20077;-67
2024/04/09 04:45:20;;;;;;;10.50;2.53;;;16.20;99.90;;;;;;4467660;26;20476;-67
2024/04/09 04:47:21;;;;;;;4.15;2.00;;;16.10;99.90;;;;;;4485089;26;20022;-67
2024/04/09 04:49:22;;;;;;;9.10;2.53;;;16.10;99.90;;;;;;4456821;26;20003;-67
2024/04/09 04:51:23;;;;;;;10.23;2.08;;;16.20;99.90;;;;;;4481318;26;20007;-67
2024/04/09 04:53:24;;;;;;;6.45;2.03;;;16.10;99.90;;;;;;4474125;26;20356;-66
2024/04/09 04:55:24;;;;;;;6.07;2.42;;;16.00;99.90;;;;;;4450005;26;20050;-67
2024/04/09 04:57:25;;;;;;;5.88;2.80;;;16.10;99.90;;;;;;4472166;26;20473;-68
2024/04/09 04:59:25;;;;;;;4.00;2.03;;;16.00;99.90;;;;;;4474091;26;20004;-65
2024/04/09 05:01:28;;;;;;;6.68;2.05;;;16.00;99.90;;;;;;4475222;26;20007;-67
2024/04/09 05:03:29;;;;;;;6.20;2.00;;;16.00;99.90;;;;;;4476469;26;20460;-65
2024/04/09 05:05:30;;;;;;;5.32;2.08;;;16.00;99.90;;;;;;4478707;26;20062;-65
2024/04/09 05:07:31;;;;;;;4.85;1.90;;;15.90;99.90;;;;;;4477472;26;20026;-65
2024/04/09 05:09:35;;;;;;;4.72;1.60;;;15.90;99.90;;;;;;4477778;26;20357;-65
2024/04/09 05:11:35;;;;;;;3.45;1.70;;;15.90;99.90;;;;;;4476286;26;20086;-65
2024/04/09 05:13:36;;;;;;;5.68;2.00;;;15.90;99.90;;;;;;4499232;26;20344;-65
2024/04/09 05:15:37;;;;;;;5.00;1.42;;;15.90;99.90;;;;;;4479524;26;20004;-65
2024/04/09 05:17:38;;;;;;;5.05;1.92;;;15.90;99.90;;;;;;4474815;26;20018;-65
2024/04/09 05:19:38;;;;;;;3.95;1.45;;;15.90;99.90;;;;;;4472464;26;20019;-65
2024/04/09 05:21:39;;;;;;;4.07;2.10;;;15.90;99.90;;;;;;4476965;26;20341;-65
2024/04/09 05:23:39;;;;;;;6.10;1.70;;;15.90;99.90;;;;;;4469382;26;20008;-65
2024/04/09 05:25:40;;;;;;;5.82;1.90;;;15.80;99.90;;;;;;4473325;26;20475;-64
2024/04/09 05:27:41;;;;;;;2.35;1.45;;;15.80;99.90;;;;;;4465176;26;20018;-65
2024/04/09 05:29:41;;;;;;;5.75;1.48;;;15.80;99.90;;;;;;4468343;26;20012;-65
2024/04/09 05:31:42;;;;;;;2.58;1.25;;;15.90;99.90;;;;;;4462997;26;20445;-65
2024/04/09 05:33:46;;;;;;;4.35;1.17;;;15.90;99.90;;;;;;4470071;26;20022;-64
2024/04/09 05:35:47;;;;;;;4.50;1.23;;;15.90;99.90;;;;;;4468697;26;20026;-66
2024/04/09 05:37:49;;;;;;;3.80;1.75;;;16.00;99.90;;;;;;4457943;26;20479;-65
2024/04/09 05:39:50;;;;;;;4.70;1.65;;;15.90;99.90;;;;;;4442136;26;20007;-64
2024/04/09 05:41:51;;;;;;;4.40;1.67;;;15.90;99.90;;;;;;4455660;26;19999;-65
2024/04/09 05:43:51;;;;;;;4.43;1.40;;;15.90;99.90;;;;;;4466810;26;20100;-65
2024/04/09 05:45:52;;;;;;;5.50;1.75;;;15.90;99.90;;;;;;4468856;26;20060;-64
2024/04/09 05:47:53;;;;;;;4.07;1.63;;;15.80;99.90;;;;;;4518759;26;20015;-64
2024/04/09 05:49:53;;;;;;;11.75;1.63;;;15.80;99.90;;;;;;4539835;25;20511;-64
2024/04/09 05:51:54;;;;;;;5.55;1.73;;;15.70;99.90;;;;;;4479738;26;20019;-64
2024/04/09 05:53:54;;;;;;;2.42;1.10;;;15.60;99.90;;;;;;4478687;26;20036;-64
2024/04/09 05:55:56;;;;;;;2.63;1.50;;;15.60;99.90;;;;;;4462137;26;20023;-65
2024/04/09 05:57:56;;;;;;;3.83;1.20;;;15.50;99.90;;;;;;4473269;26;20487;-64
2024/04/09 05:59:57;;;;;;;1.20;0.75;;;15.40;99.90;;;;;;4473583;26;20022;-64
2024/04/09 06:01:58;;;;;;;2.05;0.75;;;15.30;99.90;;;;;;4473356;26;20017;-64
2024/04/09 06:03:58;;;;;;;2.92;0.80;;;15.20;99.90;;;;;;4474686;26;20019;-64
2024/04/09 06:05:59;;;;;;;2.90;0.88;;;15.10;99.90;;;;;;4528986;26;20527;-67
2024/04/09 06:08:00;;;;;;;3.15;0.95;;;15.10;99.90;;;;;;4475453;26;20023;-67
2024/04/09 06:10:03;;;;;;;1.85;0.80;;;15.10;99.90;;;;;;4474544;26;20003;-67
2024/04/09 06:12:04;;;;;;;3.95;1.20;;;15.00;99.90;;;;;;4470983;26;20007;-66
2024/04/09 06:14:05;;;;;;;2.55;0.60;;;15.00;99.90;;;;;;4474307;26;20506;-66
2024/04/09 06:16:06;;;;;;;2.42;0.88;;;15.00;99.90;;;;;;4472750;26;20011;-66
2024/04/09 06:18:08;;;;;;;2.67;0.70;;;14.90;99.90;;;;;;4470213;26;20004;-66
2024/04/09 06:20:09;;;;;;;1.67;0.52;;;14.80;99.90;;;;;;4474884;26;20011;-66
2024/04/09 06:22:10;;;;;;;1.25;0.60;;;14.80;99.90;;;;;;4474192;26;20505;-66
2024/04/09 06:24:10;;;;;;;1.42;0.65;;;14.70;99.90;;;;;;4473955;26;20019;-66
2024/04/09 06:26:11;;;;;;;2.13;0.73;;;14.70;99.90;;;;;;4457080;26;20464;-66
2024/04/09 06:28:13;;;;;;;1.17;0.50;;;14.70;99.90;;;;;;4464338;26;20007;-66
2024/04/09 06:30:13;;;;;;;1.88;0.88;;;14.50;99.90;;;;;;4498968;26;20491;-66
2024/04/09 06:32:14;;;;;;;3.17;0.77;;;14.50;99.90;;;;;;4473829;26;20084;-66
2024/04/09 06:34:16;;;;;;;1.92;0.85;;;14.40;99.90;;;;;;4471210;26;20010;-67
2024/04/09 06:36:16;;;;;;;3.05;0.73;;;14.30;99.90;;;;;;4507086;26;20327;-67
2024/04/09 06:38:17;;;;;;;4.38;0.73;;;14.30;99.90;;;;;;4478764;26;20007;-66
2024/04/09 06:40:18;;;;;;;2.47;0.70;;;14.30;99.90;;;;;;4452487;26;20018;-67
2024/04/09 06:42:19;;;;;;;2.38;0.80;;;14.20;99.90;;;;;;4518738;26;20006;-67
2024/04/09 06:44:20;;;;;;;2.22;0.70;;;14.20;99.90;;;;;;4456362;26;20020;-67
2024/04/09 06:46:21;;;;;;;3.00;1.00;;;14.10;99.90;;;;;;4471694;26;20474;-66
2024/04/09 06:48:22;;;;;;;1.45;0.68;;;14.10;99.90;;;;;;4481002;26;20405;-67
2024/04/09 06:50:22;;;;;;;1.55;0.43;;;14.10;99.90;;;;;;4529960;26;20010;-67
2024/04/09 06:52:23;;;;;;;7.78;0.70;;;14.10;99.90;;;;;;4477231;26;20016;-67
2024/04/09 06:54:24;;;;;;;1.95;0.82;;;14.10;99.90;;;;;;4477356;26;20003;-66
2024/04/09 06:56:24;;;;;;;1.65;0.50;;;14.10;99.90;;;;;;4452265;26;20019;-67
2024/04/09 06:58:25;;;;;;;2.13;0.52;;;14.20;99.90;;;;;;4477351;26;20014;-66
2024/04/09 07:00:26;;;;;;;2.83;0.50;;;14.20;99.90;;;;;;4479598;26;20459;-67
2024/04/09 07:02:26;;;;;;;1.42;0.63;;;14.20;99.90;;;;;;4473335;26;20460;-67
2024/04/09 07:04:27;;;;;;;1.48;0.40;;;14.20;99.90;;;;;;4479206;26;20003;-67
2024/04/09 07:06:28;;;;;;;2.95;1.08;;;14.30;99.90;;;;;;4478345;26;20076;-67
2024/04/09 07:08:28;;;;;;;1.90;0.60;;;14.20;99.90;;;;;;4473965;26;20468;-67
2024/04/09 07:10:29;;;;;;;1.00;0.70;;;14.30;99.90;;;;;;4462965;26;20011;-67
2024/04/09 07:12:31;;;;;;;3.20;1.00;;;14.30;99.90;;;;;;4535018;25;20490;-67
2024/04/09 07:14:31;;;;;;;3.60;1.27;;;14.30;99.90;;;;;;4532650;25;20002;-67
2024/04/09 07:16:33;;;;;;;2.25;0.80;;;14.20;99.90;;;;;;4477125;26;20003;-67
2024/04/09 07:18:35;;;;;;;1.65;0.82;;;14.20;99.90;;;;;;4469836;26;20028;-59
2024/04/09 07:20:36;;;;;;;3.38;0.82;;;14.20;99.90;;;;;;4467681;26;20022;-60
2024/04/09 07:22:36;;;;;;;1.45;0.60;;;14.20;99.90;;;;;;4473911;26;20460;-59
2024/04/09 07:24:37;;;;;;;3.42;0.77;;;14.10;99.90;;;;;;4473798;26;20015;-59
2024/04/09 07:26:38;;;;;;;3.33;1.05;;;14.10;99.90;;;;;;4478470;26;20015;-59
2024/04/09 07:28:39;;;;;;;2.97;1.15;;;14.10;99.90;;;;;;4466362;26;20007;-59
2024/04/09 07:30:40;;;;;;;4.72;0.88;;;14.10;99.90;;;;;;4475762;26;20340;-59
2024/04/09 07:32:41;;;;;;;6.15;1.10;;;14.10;99.90;;;;;;4534338;26;20010;-59
2024/04/09 07:34:43;;;;;;;2.67;0.98;;;14.00;99.90;;;;;;4466762;26;20534;-59
2024/04/09 07:36:44;;;;;;;2.20;1.00;;;13.90;99.90;;;;;;4469347;26;20014;-59
2024/04/09 07:38:44;;;;;;;4.03;1.17;;;13.90;99.90;;;;;;4464275;26;20000;-59
2024/04/09 07:40:45;;;;;;;4.70;1.13;;;13.80;99.90;;;;;;4472996;26;20137;-59
2024/04/09 07:42:46;;;;;;;2.22;1.08;;;13.90;99.90;;;;;;4478571;26;20047;-59
2024/04/09 07:44:46;;;;;;;3.40;1.20;;;13.80;99.90;;;;;;4469803;26;20010;-59
2024/04/09 07:46:49;;;;;;;3.60;1.02;;;13.80;99.90;;;;;;4476034;26;20018;-59
2024/04/09 07:48:50;;;;;;;1.27;0.70;;;13.80;99.90;;;;;;4472552;26;20034;-59
2024/04/09 07:50:52;;;;;;;6.03;1.10;;;13.90;99.90;;;;;;4472211;26;20137;-59
2024/04/09 07:52:54;;;;;;;3.83;0.85;;;13.80;99.90;;;;;;4476245;26;20477;-59
2024/04/09 07:54:54;;;;;;;3.90;1.23;;;13.80;99.90;;;;;;4471744;26;20019;-59
2024/04/09 07:56:55;;;;;;;2.75;1.08;;;13.80;99.90;;;;;;4473323;26;20097;-59
2024/04/09 07:58:56;;;;;;;4.55;0.98;;;13.70;99.90;;;;;;4461214;26;20004;-59
2024/04/09 08:00:56;;;;;;;4.65;0.98;;;13.80;99.90;;;;;;4463968;26;21057;-64
2024/04/09 08:02:57;;;;;;;3.72;1.00;;;13.80;99.90;;;;;;4473301;26;20000;-60
2024/04/09 08:04:58;;;;;;;3.53;1.10;;;13.90;99.90;;;;;;4470596;26;20439;-59
2024/04/09 08:06:58;;;;;;;3.55;1.20;;;13.90;99.90;;;;;;4469814;26;20003;-59
2024/04/09 08:08:59;;;;;;;3.47;1.25;;;13.90;99.90;;;;;;4475740;26;20003;-59
2024/04/09 08:11:00;;;;;;;1.92;0.85;;;13.90;99.90;;;;;;4472080;26;20081;-59
2024/04/09 08:13:01;;;;;;;7.32;1.55;;;13.90;99.90;;;;;;4473669;26;19999;-63
2024/04/09 08:15:02;;;;;;;4.38;1.48;;;13.90;99.90;;;;;;4479133;26;20015;-60
2024/04/09 08:17:02;;;;;;;3.30;1.10;;;13.90;99.90;;;;;;4472972;26;20042;-59
2024/04/09 08:19:03;;;;;;;4.03;1.10;;;14.00;99.90;;;;;;4478318;26;20080;-61
2024/04/09 08:21:04;;;;;;;3.05;0.90;;;14.00;99.90;;;;;;4488767;26;20456;-59
2024/04/09 08:23:04;;;;;;;3.70;1.17;;;14.00;99.90;;;;;;4478454;26;20003;-59
2024/04/09 08:25:07;;;;;;;2.70;0.82;;;14.00;99.90;;;;;;4467017;26;20019;-59
2024/04/09 08:27:08;;;;;;;2.55;0.80;;;14.00;99.90;;;;;;4468478;26;20463;-60
2024/04/09 08:29:14;;;;;;;4.43;0.90;;;14.00;99.90;;;;;;4473116;26;20073;-59
2024/04/09 08:31:17;;;;;;;2.80;0.90;;;14.10;99.90;;;;;;4477505;26;20535;-59
2024/04/09 08:33:19;;;;;;;3.22;1.13;;;14.10;99.90;;;;;;4441515;26;20489;-59
2024/04/09 08:35:20;;;;;;;2.75;0.70;;;14.10;99.90;;;;;;4473156;26;20015;-59
2024/04/09 08:37:21;;;;;;;2.75;1.10;;;14.10;99.90;;;;;;4477579;26;20210;-59
2024/04/09 08:39:22;;;;;;;3.85;1.15;;;14.10;99.90;;;;;;4477779;26;20022;-59
2024/04/09 08:41:23;;;;;;;2.25;0.80;;;14.10;99.90;;;;;;4474602;26;20077;-59
2024/04/09 08:43:27;;;;;;;3.22;1.00;;;14.00;99.90;;;;;;4475936;26;20008;-59
2024/04/09 08:45:29;;;;;;;9.32;1.00;;;14.00;99.90;;;;;;4537260;25;20001;-59
2024/04/09 08:47:30;;;;;;;7.40;1.13;;;14.00;99.90;;;;;;4463504;26;20494;-59
2024/04/09 08:49:30;;;;;;;6.40;1.02;;;14.00;99.90;;;;;;4476380;26;20007;-60
2024/04/09 08:51:33;;;;;;;11.52;1.08;;;14.00;99.90;;;;;;4445222;26;20133;-62
2024/04/09 08:53:37;;;;;;;4.80;0.77;;;14.10;99.90;;;;;;4467118;26;20015;-59
2024/04/09 08:55:39;;;;;;;3.47;1.10;;;14.10;99.90;;;;;;4474200;26;20468;-59
2024/04/09 08:57:40;;;;;;;3.05;1.20;;;14.10;99.90;;;;;;4477171;26;20007;-59
2024/04/09 08:59:41;;;;;;;2.83;0.88;;;14.00;99.90;;;;;;4463692;26;20591;-58
2024/04/09 09:01:41;;;;;;;4.65;1.38;;;13.90;99.90;;;;;;4469344;26;19999;-59
2024/04/09 09:03:42;;;;;;;7.55;1.38;;;13.90;99.90;;;;;;4480118;26;20015;-58
2024/04/09 09:05:43;;;;;;;5.50;1.00;;;13.90;99.90;;;;;;4477626;26;20011;-59
2024/04/09 09:07:44;;;;;;;4.15;1.20;;;13.90;99.90;;;;;;4478874;26;20008;-59
2024/04/09 09:09:47;;;;;;;3.55;1.10;;;13.80;99.90;;;;;;4475151;26;20007;-59
2024/04/09 09:11:47;;;;;;;4.63;1.35;;;13.80;99.90;;;;;;4476708;26;20356;-59
2024/04/09 09:13:48;;;;;;;5.10;1.27;;;13.70;99.90;;;;;;4477409;26;20003;-59
2024/04/09 09:15:56;;;;;;;7.78;1.30;;;13.80;99.90;;;;;;4531711;26;20018;-59
2024/04/09 09:17:57;;;;;;;8.60;1.38;;;13.90;99.90;;;;;;4447263;26;20010;-59
2024/04/09 09:19:59;;;;;;;4.10;0.90;;;13.90;99.90;;;;;;4493182;26;20334;-59
2024/04/09 09:22:08;;;;;;;3.67;1.07;;;13.80;99.90;;;;;;4468390;26;20003;-59
2024/04/09 09:24:09;;;;;;;4.45;1.15;;;13.90;99.90;;;;;;4468473;26;20036;-59
2024/04/09 09:26:09;;;;;;;6.05;1.38;;;13.90;99.90;;;;;;4472572;26;20339;-58
2024/04/09 09:28:10;;;;;;;3.65;1.20;;;13.90;99.90;;;;;;4471452;26;20035;-59
2024/04/09 09:30:12;;;;;;;4.60;1.33;;;13.80;99.90;;;;;;4472739;26;20455;-64
2024/04/09 09:32:19;;;;;;;5.68;1.35;;;13.80;99.90;;;;;;4477919;26;20003;-59
2024/04/09 09:34:40;;;;;;;8.18;1.58;;;13.80;99.90;;;;;;4473473;26;20030;-58
2024/04/09 09:36:42;;;;;;;4.82;1.35;;;13.90;99.90;;;;;;4493456;26;20003;-61
2024/04/09 09:38:44;;;;;;;5.30;1.73;;;13.80;99.90;;;;;;4479835;26;20596;-75
2024/04/09 09:40:48;;;;;;;11.02;1.80;;;13.80;99.90;;;;;;4483709;26;20015;-75
2024/04/09 09:42:49;;;;;;;4.40;1.23;;;13.70;99.90;;;;;;4475085;26;20023;-75
2024/04/09 09:44:51;;;;;;;5.72;1.80;;;13.70;99.90;;;;;;4480191;26;20035;-75
2024/04/09 09:46:52;;;;;;;6.95;1.48;;;13.70;99.90;;;;;;4473357;26;19999;-75
2024/04/09 09:48:56;;;;;;;3.25;0.93;;;13.60;99.90;;;;;;4449148;26;20024;-75
2024/04/09 09:50:57;;;;;;;3.75;0.95;;;13.60;99.90;;;;;;4445129;26;20007;-75
2024/04/09 09:52:58;;;;;;;7.22;1.25;;;13.60;99.90;;;;;;4452600;26;20080;-75
2024/04/09 09:54:59;;;;;;;2.78;1.02;;;13.60;99.90;;;;;;4481968;26;20021;-75
2024/04/09 09:57:06;;;;;;;3.58;1.15;;;13.50;99.90;;;;;;4473380;26;19999;-70
2024/04/09 09:59:09;;;;;;;4.63;1.30;;;13.50;99.90;;;;;;4470814;26;19996;-75
2024/04/09 10:01:10;;;;;;;3.80;1.10;;;13.60;99.90;;;;;;4478556;26;20289;-74
2024/04/09 10:03:11;;;;;;;2.92;1.00;;;13.60;99.90;;;;;;4476540;26;20525;-75
2024/04/09 10:05:15;;;;;;;3.65;1.13;;;13.60;99.90;;;;;;4472377;26;20019;-75
2024/04/09 10:07:17;;;;;;;3.95;1.25;;;13.70;99.90;;;;;;4487172;26;20338;-75
2024/04/09 10:09:19;;;;;;;6.28;1.70;;;13.80;99.90;;;;;;4476842;26;20446;-75
2024/04/09 10:11:23;;;;;;;5.40;1.67;;;13.80;99.90;;;;;;4477475;26;20016;-75
2024/04/09 10:13:24;;;;;;;8.82;1.60;;;13.80;99.90;;;;;;4454859;26;20089;-75
2024/04/09 10:15:26;;;;;;;6.88;1.35;;;14.00;99.90;;;;;;4447298;26;20016;-76
2024/04/09 10:17:30;;;;;;;4.25;1.58;;;14.00;99.90;;;;;;4493428;26;20004;-77
2024/04/09 10:19:35;;;;;;;4.22;1.10;;;14.00;99.90;;;;;;4459258;26;20004;-68
2024/04/09 10:21:39;;;;;;;7.03;1.40;;;14.10;99.90;;;;;;4469253;26;20875;-75
2024/04/09 10:23:41;;;;;;;4.80;1.45;;;14.20;99.90;;;;;;4476975;26;20007;-75
2024/04/09 10:25:44;;;;;;;3.28;1.17;;;14.20;99.90;;;;;;4477309;26;20015;-75
2024/04/09 10:27:46;;;;;;;4.75;1.35;;;14.20;99.90;;;;;;4471683;26;20101;-74
2024/04/09 10:29:53;;;;;;;4.10;0.93;;;14.30;99.90;;;;;;4475425;26;20515;-74